Time;durP1;ratioP1;P1;durP2;ratioP2;P2;SDS_P1;SDS_P2;PMS_P1;PMS_P2;Temp;Humidity;BMP_temperature;BMP_pressure;BME280_temperature;BME280_humidity;BME280_pressure;Samples;Min_cycle;Max_cycle;Signal;HPM_P1;HPM_P2
2021/12/27 00:02:08;;;;;;;23.73;13.90;;;1.50;99.90;;;;;;4995419;28;20038;-85
2021/12/27 00:04:33;;;;;;;22.02;13.80;;;1.50;99.90;;;;;;4994187;28;20045;-85
2021/12/27 00:06:59;;;;;;;21.90;13.00;;;1.50;99.90;;;;;;5011923;28;20124;-85
2021/12/27 00:09:24;;;;;;;21.15;13.35;;;1.50;99.90;;;;;;4995489;28;20073;-85
2021/12/27 00:11:50;;;;;;;18.83;11.95;;;1.50;99.90;;;;;;4995312;28;20403;-85
2021/12/27 00:14:15;;;;;;;24.30;14.05;;;1.50;99.90;;;;;;5010753;28;20596;-85
2021/12/27 00:16:41;;;;;;;21.48;13.43;;;1.50;99.90;;;;;;5011053;28;20033;-85
2021/12/27 00:19:07;;;;;;;23.10;14.27;;;1.50;99.90;;;;;;4995131;28;20034;-85
2021/12/27 00:21:32;;;;;;;21.33;13.60;;;1.40;99.90;;;;;;5011253;28;20083;-85
2021/12/27 00:23:58;;;;;;;23.38;14.20;;;1.50;99.90;;;;;;4994833;28;20454;-85
2021/12/27 00:26:23;;;;;;;22.88;13.98;;;1.40;99.90;;;;;;4994794;28;20048;-85
2021/12/27 00:28:51;;;;;;;24.13;14.95;;;1.40;99.90;;;;;;4994780;28;20045;-85
2021/12/27 00:31:17;;;;;;;23.80;15.07;;;1.40;99.90;;;;;;5011318;28;20045;-85
2021/12/27 00:33:43;;;;;;;21.40;13.70;;;1.50;99.90;;;;;;5010701;28;20119;-85
2021/12/27 00:36:08;;;;;;;21.42;13.82;;;1.50;99.90;;;;;;5011108;28;20042;-85
2021/12/27 00:38:34;;;;;;;24.17;14.50;;;1.50;99.90;;;;;;5010643;28;20041;-85
2021/12/27 00:40:59;;;;;;;22.27;14.77;;;1.50;99.90;;;;;;4994853;28;20042;-85
2021/12/27 00:43:25;;;;;;;21.73;13.73;;;1.50;99.90;;;;;;5010724;28;20069;-85
2021/12/27 00:45:51;;;;;;;24.17;14.55;;;1.50;99.90;;;;;;5011517;28;20042;-85
2021/12/27 00:48:17;;;;;;;24.65;15.23;;;1.50;99.90;;;;;;5011239;28;20515;-85
2021/12/27 00:50:46;;;;;;;22.33;14.30;;;1.50;99.90;;;;;;4995560;28;20053;-85
2021/12/27 00:53:12;;;;;;;21.90;14.65;;;1.50;99.90;;;;;;5011701;28;20045;-85
2021/12/27 00:55:37;;;;;;;23.58;15.25;;;1.50;99.90;;;;;;5005685;28;20034;-85
2021/12/27 00:58:03;;;;;;;24.38;15.18;;;1.50;99.90;;;;;;5018603;28;20458;-85
2021/12/27 01:00:29;;;;;;;24.35;13.65;;;1.50;99.90;;;;;;5010371;28;20041;-85
2021/12/27 01:02:55;;;;;;;24.73;14.75;;;1.50;99.90;;;;;;4993751;28;20041;-85
2021/12/27 01:05:23;;;;;;;24.48;14.68;;;1.50;99.90;;;;;;4994077;28;20041;-85
2021/12/27 01:07:48;;;;;;;22.75;13.55;;;1.50;99.90;;;;;;5010370;28;20034;-85
2021/12/27 01:18:07;;;;;;;22.75;14.93;;;1.50;99.90;;;;;;5010449;28;20056;-85
2021/12/27 01:20:35;;;;;;;24.77;14.25;;;1.50;99.90;;;;;;4993545;28;20092;-85
2021/12/27 01:23:00;;;;;;;23.85;14.18;;;1.50;99.90;;;;;;5010568;28;20050;-85
2021/12/27 01:25:26;;;;;;;23.90;15.52;;;1.50;99.90;;;;;;4993707;28;20040;-85
2021/12/27 01:27:52;;;;;;;26.02;15.65;;;1.50;99.90;;;;;;4993496;28;20286;-85
2021/12/27 01:30:19;;;;;;;23.52;14.75;;;1.50;99.90;;;;;;5010218;28;20056;-85
2021/12/27 01:32:51;;;;;;;24.23;16.10;;;1.50;99.90;;;;;;5010135;28;20132;-85
2021/12/27 01:35:17;;;;;;;22.98;13.80;;;1.50;99.90;;;;;;5009970;28;20045;-85
2021/12/27 01:37:44;;;;;;;23.90;14.07;;;1.50;99.90;;;;;;5010113;28;20100;-85
2021/12/27 01:40:12;;;;;;;22.52;14.50;;;1.50;99.90;;;;;;4993422;28;20038;-85
2021/12/27 01:43:06;;;;;;;29.45;16.35;;;1.50;99.90;;;;;;5009930;28;20399;-85
2021/12/27 01:45:32;;;;;;;22.50;14.82;;;1.50;99.90;;;;;;4993704;28;20069;-85
2021/12/27 01:47:58;;;;;;;24.80;15.25;;;1.50;99.90;;;;;;4993940;28;20038;-85
2021/12/27 01:50:24;;;;;;;24.85;15.02;;;1.50;99.90;;;;;;5010356;28;20046;-85
2021/12/27 01:52:50;;;;;;;24.27;14.98;;;1.50;99.90;;;;;;4993965;28;20514;-85
2021/12/27 01:55:16;;;;;;;24.08;15.07;;;1.60;99.90;;;;;;5009964;28;20526;-85
2021/12/27 01:57:42;;;;;;;26.98;15.32;;;1.60;99.90;;;;;;5009464;28;20042;-85
2021/12/27 02:00:08;;;;;;;29.33;17.83;;;1.50;99.90;;;;;;5009379;28;20052;-85
2021/12/27 02:02:34;;;;;;;23.45;15.98;;;1.60;99.90;;;;;;4993717;28;20099;-85
2021/12/27 02:04:59;;;;;;;26.10;17.05;;;1.60;99.90;;;;;;4993090;28;20495;-85
2021/12/27 02:07:25;;;;;;;24.77;15.65;;;1.60;99.90;;;;;;4993652;28;20565;-85
2021/12/27 02:10:01;;;;;;;24.77;15.65;;;1.60;99.90;;;;;;5009738;28;20133;-84
2021/12/27 02:12:31;;;;;;;24.15;15.32;;;1.60;99.90;;;;;;4993711;28;20042;-84
2021/12/27 02:14:56;;;;;;;26.05;15.82;;;1.60;99.90;;;;;;5009570;28;20041;-85
2021/12/27 02:17:22;;;;;;;24.88;16.05;;;1.60;99.90;;;;;;4993587;28;20125;-85
2021/12/27 02:19:52;;;;;;;25.13;16.27;;;1.60;99.90;;;;;;5008815;28;20041;-85
2021/12/27 02:22:18;;;;;;;23.40;15.15;;;1.70;99.90;;;;;;4992014;28;20113;-85
2021/12/27 02:24:44;;;;;;;23.88;15.55;;;1.60;99.90;;;;;;4993332;28;20486;-85
2021/12/27 02:27:14;;;;;;;23.35;15.38;;;1.60;99.90;;;;;;4993533;28;20050;-85
2021/12/27 02:29:40;;;;;;;25.50;15.80;;;1.60;99.90;;;;;;5009508;28;20069;-85
2021/12/27 02:32:07;;;;;;;25.23;15.30;;;1.60;99.90;;;;;;4993129;28;20075;-85
2021/12/27 02:34:32;;;;;;;24.75;16.17;;;1.60;99.90;;;;;;4992837;28;20072;-85
2021/12/27 02:36:59;;;;;;;29.70;17.50;;;1.60;99.90;;;;;;5009837;28;20037;-85
2021/12/27 02:39:25;;;;;;;27.65;15.50;;;1.60;99.90;;;;;;4995287;28;20042;-85
2021/12/27 02:41:52;;;;;;;26.00;16.58;;;1.60;99.90;;;;;;5013360;28;20048;-85
2021/12/27 02:44:18;;;;;;;22.63;15.00;;;1.60;99.90;;;;;;5012899;28;20453;-85
2021/12/27 02:46:44;;;;;;;27.13;16.35;;;1.70;99.90;;;;;;5013468;28;20692;-85
2021/12/27 02:49:10;;;;;;;24.20;16.27;;;1.70;99.90;;;;;;4996763;28;20049;-85
2021/12/27 02:51:35;;;;;;;24.98;15.95;;;1.70;99.90;;;;;;5013262;28;20045;-85
2021/12/27 02:54:01;;;;;;;25.35;16.92;;;1.70;99.90;;;;;;5013497;28;20093;-83
2021/12/27 02:56:29;;;;;;;25.58;14.82;;;1.70;99.90;;;;;;5013366;28;20084;-83
2021/12/27 02:58:56;;;;;;;24.27;15.93;;;1.70;99.90;;;;;;5012816;28;20034;-84
2021/12/27 03:01:24;;;;;;;26.02;16.42;;;1.70;99.90;;;;;;5011051;28;20045;-84
2021/12/27 03:03:51;;;;;;;24.00;15.38;;;1.70;99.90;;;;;;4995894;28;20049;-84
2021/12/27 03:06:17;;;;;;;26.38;15.60;;;1.70;99.90;;;;;;4996072;28;20038;-84
2021/12/27 03:08:45;;;;;;;26.30;16.65;;;1.70;99.90;;;;;;4996024;28;20038;-85
2021/12/27 03:11:11;;;;;;;26.63;16.20;;;1.70;99.90;;;;;;4996721;28;20041;-84
2021/12/27 03:13:39;;;;;;;25.40;16.08;;;1.70;99.90;;;;;;4996168;28;20041;-85
2021/12/27 03:16:11;;;;;;;24.77;15.32;;;1.70;99.90;;;;;;5012287;28;20704;-85
2021/12/27 03:18:39;;;;;;;26.35;16.65;;;1.70;99.90;;;;;;4996229;28;20092;-84
2021/12/27 03:21:06;;;;;;;24.38;15.00;;;1.70;99.90;;;;;;5012159;28;20053;-85
2021/12/27 03:23:32;;;;;;;23.67;16.00;;;1.70;99.90;;;;;;4996233;28;20121;-84
2021/12/27 03:25:58;;;;;;;23.92;16.48;;;1.70;99.90;;;;;;4995538;28;20072;-85
2021/12/27 03:28:24;;;;;;;25.25;16.02;;;1.70;99.90;;;;;;4996191;28;20077;-85
2021/12/27 03:30:50;;;;;;;25.75;17.42;;;1.70;99.90;;;;;;5012388;28;20049;-84
2021/12/27 03:33:17;;;;;;;26.08;16.83;;;1.70;99.90;;;;;;5012309;28;20395;-84
2021/12/27 03:35:52;;;;;;;29.77;16.98;;;1.70;99.90;;;;;;4995788;28;20510;-85
2021/12/27 03:38:18;;;;;;;25.83;16.15;;;1.70;99.90;;;;;;5012585;28;20136;-84
2021/12/27 03:40:45;;;;;;;24.77;15.73;;;1.70;99.90;;;;;;4995661;28;20176;-85
2021/12/27 03:43:11;;;;;;;24.48;15.82;;;1.70;99.90;;;;;;4996187;28;20042;-84
2021/12/27 03:45:39;;;;;;;25.38;16.70;;;1.70;99.90;;;;;;4997096;28;20049;-85
2021/12/27 03:48:07;;;;;;;26.95;17.23;;;1.70;99.90;;;;;;4996823;28;20069;-85
2021/12/27 03:50:34;;;;;;;25.08;16.38;;;1.70;99.90;;;;;;5006740;28;20078;-84
2021/12/27 03:53:00;;;;;;;22.92;15.32;;;1.70;99.90;;;;;;5000324;28;20373;-84
2021/12/27 03:55:26;;;;;;;23.27;15.38;;;1.70;99.90;;;;;;4995466;28;20041;-84
2021/12/27 03:57:55;;;;;;;27.55;17.92;;;1.70;99.90;;;;;;4995272;28;20679;-84
2021/12/27 04:00:33;;;;;;;25.92;17.35;;;1.70;99.90;;;;;;5011570;28;20046;-85
2021/12/27 04:03:00;;;;;;;27.13;17.75;;;1.80;99.90;;;;;;4994600;28;20038;-85
2021/12/27 04:05:26;;;;;;;24.48;15.68;;;1.80;99.90;;;;;;5011357;28;20499;-84
2021/12/27 04:08:01;;;;;;;25.58;16.65;;;1.80;99.90;;;;;;4995417;28;20044;-85
2021/12/27 04:10:28;;;;;;;25.33;16.20;;;1.80;99.90;;;;;;5011431;28;20491;-84
2021/12/27 04:12:54;;;;;;;27.42;17.05;;;1.80;99.90;;;;;;4995241;28;20033;-84
2021/12/27 04:15:20;;;;;;;23.83;16.48;;;1.80;99.90;;;;;;4995037;28;20038;-84
2021/12/27 04:17:47;;;;;;;24.38;15.88;;;1.80;99.90;;;;;;5011518;28;20168;-84
2021/12/27 04:20:12;;;;;;;27.02;17.58;;;1.80;99.90;;;;;;5010750;28;20077;-85
2021/12/27 04:22:38;;;;;;;25.98;16.42;;;1.80;99.90;;;;;;4995482;28;20186;-84
2021/12/27 04:25:04;;;;;;;26.15;16.27;;;1.80;99.90;;;;;;5010988;28;20041;-85
2021/12/27 04:27:30;;;;;;;26.85;16.58;;;1.80;99.90;;;;;;4994607;28;20046;-85
2021/12/27 04:29:55;;;;;;;25.00;15.70;;;1.80;99.90;;;;;;5011031;28;20042;-85
2021/12/27 04:32:21;;;;;;;26.92;17.55;;;1.80;99.90;;;;;;5010969;28;20098;-85
2021/12/27 04:34:47;;;;;;;26.52;17.65;;;1.80;99.90;;;;;;4994669;28;20050;-85
2021/12/27 04:37:12;;;;;;;27.88;16.67;;;1.80;99.90;;;;;;5011463;28;20048;-85
2021/12/27 04:39:38;;;;;;;25.85;16.88;;;1.80;99.90;;;;;;4995069;28;20717;-85
2021/12/27 04:42:05;;;;;;;27.65;17.40;;;1.80;99.90;;;;;;5011211;28;20073;-85
2021/12/27 04:44:32;;;;;;;26.88;16.85;;;1.80;99.90;;;;;;5011067;28;20492;-85
2021/12/27 04:46:57;;;;;;;26.75;16.98;;;1.80;99.90;;;;;;5010956;28;20049;-85
2021/12/27 04:49:23;;;;;;;27.33;17.85;;;1.80;99.90;;;;;;5011002;28;20038;-85
2021/12/27 04:51:49;;;;;;;26.25;16.60;;;1.80;99.90;;;;;;5010992;28;20049;-85
2021/12/27 04:54:15;;;;;;;24.95;17.90;;;1.80;99.90;;;;;;4993971;28;20050;-85
2021/12/27 04:56:40;;;;;;;24.33;16.48;;;1.80;99.90;;;;;;4994698;28;20084;-85
2021/12/27 04:59:06;;;;;;;25.55;16.20;;;1.80;99.90;;;;;;4994420;28;20042;-85
2021/12/27 05:01:32;;;;;;;25.30;16.63;;;1.80;99.90;;;;;;5010051;28;20510;-85
2021/12/27 05:04:00;;;;;;;27.02;17.55;;;1.80;99.90;;;;;;5009819;28;20038;-85
2021/12/27 05:06:27;;;;;;;27.45;17.45;;;1.80;99.90;;;;;;5010533;28;20038;-85
2021/12/27 05:08:53;;;;;;;25.98;17.13;;;1.80;99.90;;;;;;4994354;28;20045;-85
2021/12/27 05:11:20;;;;;;;26.35;16.95;;;1.80;99.90;;;;;;5026755;28;20041;-85
2021/12/27 05:13:45;;;;;;;26.45;16.25;;;1.80;99.90;;;;;;4994195;28;20041;-85
2021/12/27 05:16:11;;;;;;;28.65;18.58;;;1.80;99.90;;;;;;5010600;28;20439;-85
2021/12/27 05:18:37;;;;;;;25.25;17.58;;;1.90;99.90;;;;;;5010473;28;20461;-85
2021/12/27 05:21:02;;;;;;;24.65;16.42;;;1.90;99.90;;;;;;5010059;28;20050;-85
2021/12/27 05:23:28;;;;;;;25.60;16.27;;;1.90;99.90;;;;;;5010470;28;20129;-84
2021/12/27 05:25:54;;;;;;;25.20;16.85;;;1.90;99.90;;;;;;4994041;28;20045;-85
2021/12/27 05:28:19;;;;;;;27.30;17.60;;;1.90;99.90;;;;;;5010341;28;20088;-85
2021/12/27 05:30:48;;;;;;;25.73;16.55;;;1.90;99.90;;;;;;5010454;28;20533;-85
2021/12/27 05:33:15;;;;;;;25.02;16.42;;;1.90;99.90;;;;;;5009904;28;20069;-85
2021/12/27 05:35:40;;;;;;;27.30;16.08;;;1.90;99.90;;;;;;5026927;28;20100;-84
2021/12/27 05:38:06;;;;;;;26.77;16.77;;;1.90;99.90;;;;;;4993706;28;20037;-85
2021/12/27 05:40:32;;;;;;;27.55;17.38;;;1.90;99.90;;;;;;4993314;28;20119;-85
2021/12/27 05:42:57;;;;;;;28.48;16.75;;;1.90;99.90;;;;;;5010958;28;20068;-85
2021/12/27 05:45:23;;;;;;;27.58;17.42;;;1.90;99.90;;;;;;4993337;28;20438;-85
2021/12/27 05:47:49;;;;;;;26.73;18.08;;;1.90;99.90;;;;;;5010303;28;20041;-84
2021/12/27 05:50:16;;;;;;;26.20;17.17;;;1.90;99.90;;;;;;5009784;28;20046;-85
2021/12/27 05:52:41;;;;;;;26.35;17.27;;;1.90;99.90;;;;;;5009736;28;20049;-85
2021/12/27 05:55:09;;;;;;;25.95;16.38;;;2.00;99.90;;;;;;4993526;28;20042;-85
2021/12/27 05:57:35;;;;;;;26.00;17.77;;;1.90;99.90;;;;;;4993495;28;20045;-85
2021/12/27 06:00:02;;;;;;;28.70;17.75;;;2.00;99.90;;;;;;5009389;28;20085;-85
2021/12/27 06:02:28;;;;;;;27.58;17.48;;;1.90;99.90;;;;;;4993495;28;20053;-85
2021/12/27 06:04:54;;;;;;;26.15;17.25;;;2.00;99.90;;;;;;4992749;28;20038;-85
2021/12/27 06:07:19;;;;;;;27.15;17.35;;;1.90;99.90;;;;;;4993673;28;20495;-85
2021/12/27 06:09:45;;;;;;;25.60;16.30;;;1.90;99.90;;;;;;5010128;28;20064;-85
2021/12/27 06:12:10;;;;;;;30.95;19.15;;;2.00;99.90;;;;;;5009491;28;20049;-85
2021/12/27 06:14:36;;;;;;;26.83;18.65;;;2.00;99.90;;;;;;5012127;28;20196;-85
2021/12/27 06:17:02;;;;;;;27.23;17.73;;;2.00;99.90;;;;;;5013654;28;20046;-85
2021/12/27 06:19:27;;;;;;;28.83;18.10;;;2.00;99.90;;;;;;5013377;28;20057;-85
2021/12/27 06:21:54;;;;;;;27.02;18.52;;;2.00;99.90;;;;;;5012919;28;20045;-85
2021/12/27 06:24:20;;;;;;;30.75;18.23;;;1.90;99.90;;;;;;4997016;28;20483;-84
2021/12/27 06:26:46;;;;;;;26.27;17.08;;;2.00;99.90;;;;;;5013866;28;20037;-85
2021/12/27 06:29:11;;;;;;;27.70;18.25;;;2.00;99.90;;;;;;5013725;28;20044;-85
2021/12/27 06:31:37;;;;;;;28.73;18.73;;;2.00;99.90;;;;;;5013304;28;20038;-84
2021/12/27 06:34:03;;;;;;;28.58;19.40;;;2.00;99.90;;;;;;4996424;28;20038;-85
2021/12/27 06:36:29;;;;;;;27.48;18.65;;;2.00;99.90;;;;;;5013463;28;20045;-84
2021/12/27 06:38:55;;;;;;;25.25;17.15;;;2.00;99.90;;;;;;5014339;28;20517;-85
2021/12/27 06:41:23;;;;;;;27.50;19.30;;;2.00;99.90;;;;;;5014139;28;20054;-85
2021/12/27 06:43:48;;;;;;;28.50;17.95;;;2.00;99.90;;;;;;5021381;28;20076;-85
2021/12/27 06:46:14;;;;;;;29.75;19.17;;;2.00;99.90;;;;;;5008753;28;20069;-85
2021/12/27 06:48:40;;;;;;;29.00;18.92;;;2.00;99.90;;;;;;5013720;28;20053;-85
2021/12/27 06:51:05;;;;;;;28.92;18.33;;;2.00;99.90;;;;;;4996934;28;20410;-85
2021/12/27 06:53:31;;;;;;;30.42;19.00;;;2.00;99.90;;;;;;5013230;28;20091;-85
2021/12/27 06:55:57;;;;;;;27.95;19.08;;;2.00;99.90;;;;;;5013262;28;20038;-85
2021/12/27 06:58:24;;;;;;;28.33;17.35;;;2.00;99.90;;;;;;5012757;28;20046;-85
2021/12/27 07:00:50;;;;;;;28.83;18.85;;;2.10;99.90;;;;;;4996531;28;20064;-85
2021/12/27 07:03:16;;;;;;;27.85;17.83;;;2.00;99.90;;;;;;5011892;28;20038;-85
2021/12/27 07:05:42;;;;;;;26.58;17.23;;;2.00;99.90;;;;;;4996384;28;20491;-85
2021/12/27 07:08:08;;;;;;;27.02;17.80;;;2.10;99.90;;;;;;5012831;28;20045;-85
2021/12/27 07:10:34;;;;;;;29.70;19.45;;;2.10;99.90;;;;;;5012827;28;20130;-85
2021/12/27 07:13:01;;;;;;;26.90;18.48;;;2.10;99.90;;;;;;5013491;28;20073;-84
2021/12/27 07:15:28;;;;;;;29.63;18.70;;;2.10;99.90;;;;;;5012690;28;20049;-84
2021/12/27 07:17:53;;;;;;;25.25;17.05;;;2.10;99.90;;;;;;4997105;28;20046;-84
2021/12/27 07:20:19;;;;;;;28.25;17.58;;;2.10;99.90;;;;;;5012402;28;20042;-84
2021/12/27 07:22:45;;;;;;;27.08;18.38;;;2.10;99.90;;;;;;4980574;28;20410;-84
2021/12/27 07:25:10;;;;;;;27.23;17.58;;;2.10;99.90;;;;;;5011619;28;20065;-84
2021/12/27 07:27:36;;;;;;;28.02;17.77;;;2.10;99.90;;;;;;4996391;28;20069;-85
2021/12/27 07:30:05;;;;;;;27.98;18.30;;;2.10;99.90;;;;;;5011694;28;20049;-85
2021/12/27 07:32:31;;;;;;;26.77;18.77;;;2.10;99.90;;;;;;4992358;28;20035;-85
2021/12/27 07:34:57;;;;;;;28.42;17.65;;;2.10;99.90;;;;;;4992295;28;20408;-84
2021/12/27 07:37:23;;;;;;;25.67;16.80;;;2.20;99.90;;;;;;4992443;28;20488;-83
2021/12/27 07:39:48;;;;;;;30.13;18.38;;;2.10;99.90;;;;;;4992586;28;20046;-84
2021/12/27 07:42:14;;;;;;;30.73;18.85;;;2.20;99.90;;;;;;4976075;28;20046;-84
2021/12/27 07:44:40;;;;;;;28.92;18.85;;;2.20;99.90;;;;;;4992186;28;20423;-84
2021/12/27 07:47:05;;;;;;;29.27;18.40;;;2.20;99.90;;;;;;4992780;28;20042;-84
2021/12/27 07:49:31;;;;;;;28.77;18.38;;;2.20;99.90;;;;;;4992611;28;20049;-84
2021/12/27 07:51:57;;;;;;;31.02;19.73;;;2.20;99.90;;;;;;4992489;28;20085;-85
2021/12/27 07:54:22;;;;;;;32.58;19.83;;;2.20;99.90;;;;;;4992048;28;20038;-84
2021/12/27 07:56:48;;;;;;;29.40;18.67;;;2.20;99.90;;;;;;4992347;28;20042;-85
2021/12/27 07:59:13;;;;;;;31.58;18.80;;;2.20;99.90;;;;;;4992199;28;20488;-85
2021/12/27 08:01:40;;;;;;;32.22;18.05;;;2.20;99.90;;;;;;4992180;28;20046;-85
2021/12/27 08:04:06;;;;;;;33.72;19.05;;;2.20;99.90;;;;;;5002007;28;20084;-85
2021/12/27 08:06:33;;;;;;;31.73;19.15;;;2.20;99.90;;;;;;5011775;28;20038;-84
2021/12/27 08:08:59;;;;;;;31.38;19.08;;;2.20;99.90;;;;;;5011327;28;20124;-84
2021/12/27 08:11:25;;;;;;;32.92;18.73;;;2.30;99.90;;;;;;5011375;28;20630;-85
2021/12/27 08:13:51;;;;;;;32.95;20.10;;;2.30;99.90;;;;;;4995335;28;20057;-84
2021/12/27 08:16:17;;;;;;;32.55;19.58;;;2.30;99.90;;;;;;4994878;28;20042;-84
2021/12/27 08:18:46;;;;;;;37.33;20.02;;;2.30;99.90;;;;;;5011732;28;20041;-84
2021/12/27 08:21:13;;;;;;;37.25;20.80;;;2.30;99.90;;;;;;5011393;28;20072;-84
2021/12/27 08:23:38;;;;;;;36.13;19.70;;;2.30;99.90;;;;;;4994740;28;20483;-84
2021/12/27 08:26:04;;;;;;;36.60;19.25;;;2.40;99.90;;;;;;4994660;28;20037;-84
2021/12/27 08:28:31;;;;;;;35.75;19.70;;;2.40;99.90;;;;;;5011383;28;20133;-84
2021/12/27 08:30:57;;;;;;;35.65;19.05;;;2.40;99.90;;;;;;4994839;28;20402;-84
2021/12/27 08:33:22;;;;;;;42.33;21.40;;;2.40;99.90;;;;;;4994505;28;20050;-84
2021/12/27 08:35:48;;;;;;;38.47;20.92;;;2.50;99.90;;;;;;4994299;28;20041;-84
2021/12/27 08:38:16;;;;;;;39.88;19.80;;;2.50;99.90;;;;;;4994453;28;20577;-84
2021/12/27 08:40:42;;;;;;;43.72;22.10;;;2.50;99.90;;;;;;4994534;28;20038;-84
2021/12/27 08:43:07;;;;;;;34.10;20.10;;;2.50;99.90;;;;;;4994713;28;20042;-84
2021/12/27 08:45:33;;;;;;;42.45;21.73;;;2.50;99.90;;;;;;5010930;28;20038;-84
2021/12/27 08:47:59;;;;;;;43.08;21.42;;;2.60;99.90;;;;;;4995188;28;20036;-84
2021/12/27 08:50:25;;;;;;;42.55;21.42;;;2.60;99.90;;;;;;4994945;28;20784;-84
2021/12/27 08:52:50;;;;;;;41.08;21.35;;;2.60;99.90;;;;;;5011022;28;20511;-85
2021/12/27 08:55:17;;;;;;;44.88;21.75;;;2.60;99.90;;;;;;4993984;28;20084;-84
2021/12/27 08:57:42;;;;;;;47.70;23.10;;;2.60;99.90;;;;;;5011006;28;20256;-84
2021/12/27 09:00:10;;;;;;;40.50;22.00;;;2.70;99.90;;;;;;4993988;28;20671;-84
2021/12/27 09:02:37;;;;;;;42.20;22.52;;;2.70;99.90;;;;;;5010533;28;20038;-84
2021/12/27 09:05:04;;;;;;;37.63;21.08;;;2.70;99.90;;;;;;5008548;28;20040;-84
2021/12/27 09:07:29;;;;;;;43.25;22.13;;;2.70;99.90;;;;;;4994697;28;20466;-84
2021/12/27 09:09:55;;;;;;;48.28;23.05;;;2.70;99.90;;;;;;5010821;28;20129;-84
2021/12/27 09:12:21;;;;;;;45.08;22.40;;;2.80;99.90;;;;;;5010465;28;20402;-85
2021/12/27 09:14:47;;;;;;;45.90;22.73;;;2.80;99.90;;;;;;5010333;28;20069;-84
2021/12/27 09:17:12;;;;;;;45.78;22.02;;;2.80;99.90;;;;;;4993970;28;20072;-84
2021/12/27 09:19:38;;;;;;;44.15;22.80;;;2.80;99.90;;;;;;5010724;28;20041;-85
2021/12/27 09:22:04;;;;;;;42.97;22.42;;;2.80;99.90;;;;;;5010404;28;20880;-85
2021/12/27 09:24:31;;;;;;;47.70;22.05;;;2.80;99.90;;;;;;4994405;28;20510;-85
2021/12/27 09:26:58;;;;;;;52.95;24.67;;;2.80;99.90;;;;;;4995235;28;20145;-85
2021/12/27 09:29:23;;;;;;;44.38;22.17;;;2.80;99.90;;;;;;5014304;28;20050;-85
2021/12/27 09:31:50;;;;;;;54.75;24.83;;;2.90;99.90;;;;;;5004456;28;20038;-85
2021/12/27 09:34:16;;;;;;;54.53;23.85;;;2.90;99.90;;;;;;5009641;28;20045;-84
2021/12/27 09:36:42;;;;;;;45.22;23.45;;;2.90;99.90;;;;;;5010120;28;20037;-84
2021/12/27 09:39:07;;;;;;;54.38;26.05;;;2.90;99.90;;;;;;4993987;28;20147;-84
2021/12/27 09:41:33;;;;;;;51.50;24.23;;;2.90;99.90;;;;;;4994281;28;20048;-84
2021/12/27 09:43:59;;;;;;;56.33;25.45;;;3.00;99.90;;;;;;5008525;28;20054;-85
2021/12/27 09:46:25;;;;;;;52.15;25.15;;;3.00;99.90;;;;;;4993372;28;20096;-85
2021/12/27 09:48:54;;;;;;;48.20;23.75;;;3.00;99.90;;;;;;5009929;28;20034;-85
2021/12/27 09:51:20;;;;;;;51.40;24.17;;;3.00;99.90;;;;;;4993999;28;20100;-83
2021/12/27 09:53:46;;;;;;;51.40;24.80;;;3.00;99.90;;;;;;4993689;28;20045;-84
2021/12/27 09:56:12;;;;;;;51.22;24.48;;;3.00;99.90;;;;;;5009885;28;20073;-84
2021/12/27 09:58:39;;;;;;;52.10;25.50;;;3.00;99.90;;;;;;5010252;28;20041;-85
2021/12/27 10:01:06;;;;;;;52.17;24.98;;;3.00;99.90;;;;;;4992961;28;20042;-85
2021/12/27 10:03:47;;;;;;;56.42;24.80;;;3.10;99.90;;;;;;5025573;28;20396;-85
2021/12/27 10:06:13;;;;;;;49.78;23.33;;;3.10;99.90;;;;;;5009930;28;20045;-85
2021/12/27 10:08:44;;;;;;;57.58;26.10;;;3.10;99.90;;;;;;5026568;28;20037;-84
2021/12/27 10:11:25;;;;;;;56.22;25.27;;;3.10;99.90;;;;;;4993695;28;20038;-85
2021/12/27 10:14:01;;;;;;;58.42;25.70;;;3.10;99.90;;;;;;5009472;28;20041;-85
2021/12/27 10:16:29;;;;;;;49.95;24.23;;;3.10;99.90;;;;;;5009505;28;20041;-85
2021/12/27 10:19:07;;;;;;;55.00;23.85;;;3.10;99.90;;;;;;4993462;28;20049;-85
2021/12/27 10:21:34;;;;;;;53.38;24.73;;;3.20;99.90;;;;;;5007832;28;20058;-85
2021/12/27 10:24:09;;;;;;;49.85;23.45;;;3.20;99.90;;;;;;5009109;28;20637;-85
2021/12/27 10:26:35;;;;;;;57.78;24.85;;;3.20;99.90;;;;;;5009265;28;20034;-84
2021/12/27 10:29:29;;;;;;;56.25;25.15;;;3.20;99.90;;;;;;5009746;28;20045;-84
2021/12/27 10:32:06;;;;;;;49.75;22.67;;;3.30;99.90;;;;;;4990077;28;20065;-84
2021/12/27 10:34:43;;;;;;;61.08;25.00;;;3.30;99.90;;;;;;5007446;28;20038;-84
2021/12/27 10:37:12;;;;;;;50.15;25.13;;;3.30;99.90;;;;;;5004847;28;20065;-85
2021/12/27 10:39:58;;;;;;;59.90;26.60;;;3.30;99.90;;;;;;4992774;28;20042;-85
2021/12/27 10:42:27;;;;;;;59.60;25.83;;;3.40;99.90;;;;;;4992791;28;20037;-85
2021/12/27 10:44:56;;;;;;;62.00;26.80;;;3.40;99.90;;;;;;4991762;28;20064;-85
2021/12/27 10:47:31;;;;;;;56.28;25.77;;;3.40;99.90;;;;;;4989901;28;20034;-85
2021/12/27 10:50:03;;;;;;;58.38;25.90;;;3.40;99.90;;;;;;5008952;28;20042;-85
2021/12/27 10:52:48;;;;;;;60.33;24.77;;;3.40;99.90;;;;;;5009250;28;20064;-85
2021/12/27 10:55:17;;;;;;;57.22;25.67;;;3.40;99.90;;;;;;4973261;28;20503;-85
2021/12/27 10:57:43;;;;;;;63.75;27.35;;;3.40;99.90;;;;;;4973893;28;20046;-85
2021/12/27 11:00:26;;;;;;;56.90;26.80;;;3.40;99.90;;;;;;4991483;28;20135;-85
2021/12/27 11:02:53;;;;;;;56.00;26.05;;;3.40;99.90;;;;;;4977201;28;20034;-85
2021/12/27 11:05:26;;;;;;;69.78;29.73;;;3.50;99.90;;;;;;4995350;28;20040;-85
2021/12/27 11:07:52;;;;;;;;;;;3.50;99.90;;;;;;4997164;28;20042;-85
2021/12/27 11:10:20;;;;;;;65.35;24.27;;;3.50;99.90;;;;;;4996627;28;19917;-85
2021/12/27 11:12:47;;;;;;;67.32;28.05;;;3.50;99.90;;;;;;4996354;28;20045;-85
2021/12/27 11:15:13;;;;;;;55.78;26.60;;;3.50;99.90;;;;;;4996402;28;20697;-85
2021/12/27 11:17:39;;;;;;;53.50;26.00;;;3.60;99.90;;;;;;5012894;28;20042;-85
2021/12/27 11:20:08;;;;;;;57.70;25.70;;;3.60;99.90;;;;;;5012710;28;20034;-85
2021/12/27 11:22:40;;;;;;;60.28;26.52;;;3.60;99.90;;;;;;4996052;28;20096;-85
2021/12/27 11:25:18;;;;;;;59.95;24.58;;;3.60;99.90;;;;;;5012101;28;20049;-85
2021/12/27 11:27:43;;;;;;;63.70;26.17;;;3.70;99.90;;;;;;5012271;28;20060;-85
2021/12/27 11:30:09;;;;;;;57.72;26.52;;;3.70;99.90;;;;;;5011837;28;20037;-85
2021/12/27 11:32:36;;;;;;;58.78;25.65;;;3.70;99.90;;;;;;5010941;28;20525;-85
2021/12/27 11:35:09;;;;;;;68.70;27.45;;;3.70;99.90;;;;;;4994106;28;20114;-85
2021/12/27 11:37:44;;;;;;;54.10;22.90;;;3.70;99.90;;;;;;5010956;28;20050;-85
2021/12/27 11:40:14;;;;;;;64.63;27.20;;;3.80;99.90;;;;;;4993567;28;20546;-85
2021/12/27 11:42:52;;;;;;;65.38;26.35;;;3.80;99.90;;;;;;4994440;28;20048;-85
2021/12/27 11:45:41;;;;;;;60.83;26.23;;;3.80;99.90;;;;;;4993840;28;20038;-85
2021/12/27 11:48:14;;;;;;;65.28;25.17;;;3.80;99.90;;;;;;4991158;28;20033;-85
2021/12/27 11:51:00;;;;;;;;;;;3.80;99.90;;;;;;4992819;28;20073;-85
2021/12/27 11:53:29;;;;;;;65.93;25.65;;;3.80;99.90;;;;;;5010229;28;19917;-85
2021/12/27 11:55:55;;;;;;;63.10;26.30;;;3.80;99.90;;;;;;4994049;28;20034;-85
2021/12/27 11:58:42;;;;;;;61.65;24.70;;;3.80;99.90;;;;;;4992122;28;20038;-85
2021/12/27 12:01:23;;;;;;;63.95;25.65;;;3.90;99.90;;;;;;4994349;28;20107;-85
2021/12/27 12:03:50;;;;;;;56.13;25.63;;;3.90;99.90;;;;;;5007654;28;20048;-85
2021/12/27 12:06:51;;;;;;;65.80;28.15;;;3.90;99.90;;;;;;5011612;28;20406;-85
2021/12/27 12:09:20;;;;;;;59.55;26.38;;;4.00;99.90;;;;;;4909759;29;20035;-84
2021/12/27 12:12:00;;;;;;;58.53;27.50;;;4.00;99.90;;;;;;4991439;28;20053;-85
2021/12/27 12:14:33;;;;;;;57.80;25.92;;;4.00;99.90;;;;;;4996073;28;20042;-84
2021/12/27 12:17:02;;;;;;;53.67;22.83;;;4.10;99.90;;;;;;4996583;28;20047;-84
2021/12/27 12:19:46;;;;;;;52.03;25.60;;;4.10;99.90;;;;;;5007310;28;20040;-84
2021/12/27 12:22:31;;;;;;;52.78;24.88;;;4.20;99.90;;;;;;5012235;28;20060;-85
2021/12/27 12:25:22;;;;;;;48.88;24.00;;;4.20;99.90;;;;;;5010361;28;20046;-85
2021/12/27 12:27:55;;;;;;;50.95;24.08;;;4.30;99.90;;;;;;5010080;28;20042;-85
2021/12/27 12:30:25;;;;;;;58.25;24.38;;;4.30;99.90;;;;;;5010190;28;20045;-85
2021/12/27 12:33:07;;;;;;;44.22;22.35;;;4.40;99.90;;;;;;4994080;28;20403;-86
2021/12/27 12:35:34;;;;;;;49.73;21.40;;;4.60;99.90;;;;;;4994816;28;20085;-85
2021/12/27 12:38:30;;;;;;;44.83;24.15;;;4.90;99.90;;;;;;4995005;28;20491;-86
2021/12/27 12:41:08;;;;;;;45.58;24.75;;;5.20;99.90;;;;;;4989198;28;20096;-86
2021/12/27 12:43:38;;;;;;;43.22;23.00;;;5.40;99.90;;;;;;5009654;28;20531;-86
2021/12/27 12:46:24;;;;;;;45.00;23.30;;;5.90;99.90;;;;;;5011208;28;20053;-86
2021/12/27 12:49:09;;;;;;;44.90;22.40;;;6.50;99.90;;;;;;4994496;28;20034;-85
2021/12/27 12:51:41;;;;;;;41.42;22.08;;;6.80;99.90;;;;;;5010504;28;20077;-86